Time;durP1;ratioP1;P1;durP2;ratioP2;P2;SDS_P1;SDS_P2;PMS_P1;PMS_P2;Temp;Humidity;BMP_temperature;BMP_pressure;BME280_temperature;BME280_humidity;BME280_pressure;Samples;Min_cycle;Max_cycle;Signal;HPM_P1;HPM_P2
2021/08/24 00:02:06;;;;;;;12.50;9.03;;;18.10;60.40;;;;;;6190838;23;20386;-89
2021/08/24 00:04:33;;;;;;;14.87;9.00;;;18.40;60.20;;;;;;6191370;23;20424;-89
2021/08/24 00:06:59;;;;;;;12.23;9.60;;;18.50;59.10;;;;;;6190591;23;20437;-89
2021/08/24 00:09:27;;;;;;;12.90;9.40;;;18.60;59.60;;;;;;6189799;23;20465;-89
2021/08/24 00:11:53;;;;;;;14.07;8.40;;;18.70;58.60;;;;;;6190746;23;20406;-89
2021/08/24 00:14:21;;;;;;;12.57;7.97;;;18.60;58.50;;;;;;6189334;23;20444;-89
2021/08/24 00:16:49;;;;;;;14.57;9.07;;;18.60;58.40;;;;;;6190203;23;20806;-89
2021/08/24 00:19:21;;;;;;;13.33;9.23;;;18.70;57.70;;;;;;6200543;23;20409;-89
2021/08/24 00:21:48;;;;;;;14.70;8.40;;;18.60;57.50;;;;;;6201871;23;20491;-89
2021/08/24 00:24:16;;;;;;;11.37;8.83;;;18.30;58.60;;;;;;6200193;23;20433;-89
2021/08/24 00:26:43;;;;;;;12.30;8.77;;;18.30;59.80;;;;;;6189468;23;20488;-89
2021/08/24 00:29:10;;;;;;;12.40;9.00;;;18.30;58.10;;;;;;6188835;23;20468;-88
2021/08/24 00:31:37;;;;;;;11.53;8.37;;;18.20;59.00;;;;;;6188695;23;20430;-89
2021/08/24 00:34:06;;;;;;;10.33;7.90;;;18.00;59.50;;;;;;6188757;23;20406;-89
2021/08/24 00:36:34;;;;;;;10.80;7.87;;;18.20;58.60;;;;;;6189052;23;20573;-89
2021/08/24 00:39:02;;;;;;;10.77;7.90;;;18.30;58.30;;;;;;6188952;23;20425;-89
2021/08/24 00:41:29;;;;;;;11.37;8.00;;;18.20;58.30;;;;;;6189002;23;20433;-88
2021/08/24 00:43:57;;;;;;;11.67;7.90;;;18.40;58.30;;;;;;6188625;23;20490;-89
2021/08/24 00:46:33;;;;;;;11.53;6.93;;;18.40;57.90;;;;;;6189817;23;20444;-89
2021/08/24 00:49:04;;;;;;;12.53;8.47;;;18.90;57.70;;;;;;6188744;23;20429;-88
2021/08/24 00:51:36;;;;;;;10.13;7.93;;;18.90;57.60;;;;;;6188973;23;20510;-89
2021/08/24 00:54:06;;;;;;;19.30;8.80;;;19.10;56.80;;;;;;6189225;23;20390;-89
2021/08/24 00:56:33;;;;;;;9.43;6.67;;;19.10;56.30;;;;;;6188820;23;20387;-89
2021/08/24 00:59:00;;;;;;;11.33;8.10;;;19.50;58.20;;;;;;6189230;23;20437;-89
2021/08/24 01:01:27;;;;;;;18.37;10.17;;;19.70;56.70;;;;;;6190105;23;20437;-89
2021/08/24 01:03:54;;;;;;;22.17;8.30;;;19.90;55.70;;;;;;6190392;23;20414;-89
2021/08/24 01:06:34;;;;;;;14.67;9.57;;;19.90;55.10;;;;;;6187516;23;20450;-89
2021/08/24 01:09:11;;;;;;;17.47;9.30;;;19.80;55.50;;;;;;6187801;23;20457;-89
2021/08/24 01:11:50;;;;;;;12.40;8.57;;;19.70;55.00;;;;;;6188342;23;20433;-89
2021/08/24 01:14:26;;;;;;;16.13;8.10;;;19.40;55.00;;;;;;6188179;23;20425;-89
2021/08/24 01:17:00;;;;;;;10.70;7.87;;;19.20;55.60;;;;;;6189025;23;20413;-88
2021/08/24 01:20:16;;;;;;;18.07;10.27;;;18.80;56.20;;;;;;6187929;23;20398;-89
2021/08/24 01:23:19;;;;;;;26.33;18.17;;;18.90;56.30;;;;;;6069548;23;20894;-89
2021/08/24 01:25:55;;;;;;;35.40;17.13;;;18.90;56.10;;;;;;6071575;23;20389;-89
2021/08/24 01:28:28;;;;;;;13.33;8.37;;;18.80;56.70;;;;;;6181349;23;20397;-89
2021/08/24 01:31:31;;;;;;;14.03;7.80;;;18.70;56.80;;;;;;6198564;23;20426;-89
2021/08/24 01:34:09;;;;;;;16.53;10.20;;;18.40;57.20;;;;;;6124118;23;20405;-89
2021/08/24 01:36:44;;;;;;;14.17;9.10;;;18.40;57.20;;;;;;6210085;23;20382;-89
2021/08/24 01:39:15;;;;;;;15.93;8.50;;;18.50;57.30;;;;;;6198401;23;20378;-89
2021/08/24 01:42:10;;;;;;;21.17;11.17;;;18.50;58.00;;;;;;6191854;23;20429;-88
2021/08/24 01:44:43;;;;;;;24.43;10.07;;;18.40;57.20;;;;;;6201402;23;20374;-88
2021/08/24 01:47:17;;;;;;;16.20;7.73;;;18.50;57.30;;;;;;6211841;23;20358;-88
2021/08/24 01:49:51;;;;;;;14.60;6.87;;;18.50;57.30;;;;;;6202614;23;20489;-89
2021/08/24 01:52:23;;;;;;;7.20;5.40;;;18.90;56.80;;;;;;6193510;23;20391;-89
2021/08/24 01:54:56;;;;;;;7.80;6.00;;;19.50;58.20;;;;;;6190351;23;20390;-89
2021/08/24 01:57:30;;;;;;;20.77;8.00;;;19.90;56.90;;;;;;6188873;23;20414;-89
2021/08/24 02:00:01;;;;;;;9.50;7.33;;;20.00;55.20;;;;;;6188970;23;20433;-89
2021/08/24 02:02:34;;;;;;;15.80;7.07;;;20.20;55.20;;;;;;6189076;23;20409;-89
2021/08/24 02:05:06;;;;;;;7.17;6.30;;;20.10;52.90;;;;;;6188856;23;20441;-90
2021/08/24 02:07:36;;;;;;;8.80;6.10;;;20.10;54.00;;;;;;6189265;23;20452;-89
2021/08/24 02:10:08;;;;;;;9.53;6.60;;;20.00;52.90;;;;;;6190810;23;20529;-89
2021/08/24 02:12:39;;;;;;;16.70;6.97;;;19.90;54.30;;;;;;6190709;23;20743;-89
2021/08/24 02:15:07;;;;;;;9.90;6.93;;;19.70;53.50;;;;;;6191856;23;20394;-89
2021/08/24 02:17:36;;;;;;;9.13;6.80;;;19.30;54.30;;;;;;6190615;23;20756;-89
2021/08/24 02:20:08;;;;;;;10.47;7.50;;;18.80;56.50;;;;;;6192367;23;20457;-89
2021/08/24 02:22:40;;;;;;;10.47;6.87;;;18.30;56.10;;;;;;6192004;23;20830;-89
2021/08/24 02:25:11;;;;;;;8.60;6.97;;;18.00;59.60;;;;;;6191559;23;20389;-89
2021/08/24 02:27:43;;;;;;;11.47;6.50;;;17.80;58.80;;;;;;6190912;23;20470;-89
2021/08/24 02:30:11;;;;;;;9.70;6.73;;;17.70;58.60;;;;;;6189414;23;20446;-89
2021/08/24 02:32:44;;;;;;;11.53;6.43;;;17.40;59.20;;;;;;6189419;23;20772;-88
2021/08/24 02:35:22;;;;;;;16.17;6.03;;;17.40;58.90;;;;;;6188460;23;20398;-88
2021/08/24 02:37:54;;;;;;;7.67;5.57;;;17.40;59.10;;;;;;6189001;23;20889;-88
2021/08/24 02:40:30;;;;;;;9.70;5.77;;;17.50;59.40;;;;;;6188802;23;20410;-88
2021/08/24 02:43:06;;;;;;;11.47;5.90;;;17.50;58.10;;;;;;6188662;23;20406;-88
2021/08/24 02:45:37;;;;;;;9.57;6.30;;;17.30;58.50;;;;;;6189814;23;20392;-89
2021/08/24 02:48:09;;;;;;;8.47;5.30;;;17.70;58.20;;;;;;6188781;23;20955;-89
2021/08/24 02:50:37;;;;;;;8.03;6.40;;;18.30;58.10;;;;;;6189611;23;20532;-89
2021/08/24 02:53:05;;;;;;;8.20;5.77;;;18.80;56.90;;;;;;6189893;23;20469;-89
2021/08/24 02:55:32;;;;;;;9.37;6.50;;;19.20;57.50;;;;;;6189787;23;20390;-88
2021/08/24 02:57:59;;;;;;;9.13;6.10;;;19.00;55.40;;;;;;6188045;23;20506;-88
2021/08/24 03:00:26;;;;;;;6.90;5.77;;;18.50;55.90;;;;;;6187503;23;20433;-88
2021/08/24 03:02:53;;;;;;;12.07;5.90;;;18.30;56.30;;;;;;6187723;23;20409;-89
2021/08/24 03:05:20;;;;;;;9.03;5.80;;;18.00;56.80;;;;;;6187765;23;20489;-89
2021/08/24 03:07:48;;;;;;;9.77;6.10;;;17.80;56.70;;;;;;6187436;23;20911;-89
2021/08/24 03:10:22;;;;;;;10.73;6.20;;;17.90;56.90;;;;;;6186697;23;20483;-89
2021/08/24 03:12:55;;;;;;;6.97;4.90;;;18.20;57.00;;;;;;6187306;23;20397;-89
2021/08/24 03:15:27;;;;;;;10.97;5.60;;;18.70;57.50;;;;;;6186905;23;20444;-89
2021/08/24 03:17:58;;;;;;;10.10;6.60;;;18.80;54.60;;;;;;6186826;23;20398;-89
2021/08/24 03:20:35;;;;;;;11.10;5.47;;;18.70;54.90;;;;;;6186740;23;20417;-89
2021/08/24 03:23:06;;;;;;;14.13;7.03;;;18.70;55.00;;;;;;6186565;23;20961;-89
2021/08/24 03:25:34;;;;;;;8.60;5.13;;;18.80;56.60;;;;;;6186586;23;20433;-89
2021/08/24 03:28:01;;;;;;;8.93;6.23;;;18.90;57.10;;;;;;6186099;23;20426;-89
2021/08/24 03:30:28;;;;;;;9.03;5.70;;;19.10;54.40;;;;;;6185828;23;20450;-89
2021/08/24 03:32:55;;;;;;;8.20;5.53;;;19.30;54.10;;;;;;6186689;23;20416;-89
2021/08/24 03:35:23;;;;;;;13.70;5.43;;;19.30;54.60;;;;;;6186849;23;20481;-89
2021/08/24 03:37:50;;;;;;;8.80;5.90;;;19.20;54.60;;;;;;6186700;23;20896;-89
2021/08/24 03:40:18;;;;;;;8.37;5.00;;;19.00;53.50;;;;;;6186903;23;20501;-89
2021/08/24 03:42:46;;;;;;;14.67;5.73;;;18.30;54.60;;;;;;6187354;23;20397;-89
2021/08/24 03:45:13;;;;;;;11.87;5.77;;;17.90;56.20;;;;;;6187930;23;20409;-89
2021/08/24 03:47:40;;;;;;;6.00;5.40;;;18.00;56.80;;;;;;6189697;23;20394;-89
2021/08/24 03:50:09;;;;;;;11.50;6.03;;;18.20;56.20;;;;;;6188486;23;20473;-89
2021/08/24 03:52:36;;;;;;;13.50;5.00;;;18.00;55.70;;;;;;6188820;23;20414;-89
2021/08/24 03:55:04;;;;;;;8.70;5.50;;;18.00;57.90;;;;;;6188730;23;20493;-89
2021/08/24 03:57:31;;;;;;;7.90;5.60;;;18.20;57.00;;;;;;6188657;23;20429;-89
2021/08/24 03:59:59;;;;;;;18.63;4.57;;;18.60;58.70;;;;;;6187824;23;20437;-89
2021/08/24 04:02:27;;;;;;;5.83;4.77;;;19.10;57.80;;;;;;6187749;23;20417;-89
2021/08/24 04:04:54;;;;;;;15.03;6.17;;;19.40;57.30;;;;;;6188052;23;20406;-89
2021/08/24 04:07:21;;;;;;;8.40;4.80;;;19.60;54.70;;;;;;6187243;23;20437;-89
2021/08/24 04:09:48;;;;;;;10.33;5.40;;;19.80;56.00;;;;;;6187166;23;20472;-89
2021/08/24 04:12:15;;;;;;;5.63;4.70;;;19.90;55.70;;;;;;6187733;23;20780;-89
2021/08/24 04:14:41;;;;;;;8.00;4.83;;;19.90;54.30;;;;;;6187338;23;20410;-89
2021/08/24 04:17:10;;;;;;;10.90;6.37;;;20.00;55.60;;;;;;6185896;23;20414;-89
2021/08/24 04:19:37;;;;;;;6.80;5.47;;;20.10;55.90;;;;;;6186745;23;20410;-89
2021/08/24 04:22:08;;;;;;;5.90;5.10;;;20.00;54.90;;;;;;6186968;23;20410;-89
2021/08/24 04:24:35;;;;;;;5.57;4.90;;;20.20;53.80;;;;;;6185847;23;20915;-90
2021/08/24 04:27:03;;;;;;;8.80;5.80;;;20.20;55.00;;;;;;6186622;23;20839;-89
2021/08/24 04:29:31;;;;;;;6.40;5.07;;;20.20;53.90;;;;;;6185711;23;20473;-89
2021/08/24 04:31:59;;;;;;;5.27;4.10;;;20.20;55.40;;;;;;6186404;23;20414;-89
2021/08/24 04:34:27;;;;;;;10.73;5.23;;;20.40;55.00;;;;;;6186577;23;20890;-89
2021/08/24 04:36:54;;;;;;;5.87;4.73;;;20.40;54.90;;;;;;6186689;23;20413;-89
2021/08/24 04:39:21;;;;;;;6.17;4.60;;;20.50;54.50;;;;;;6186819;23;20437;-89
2021/08/24 04:41:48;;;;;;;5.70;4.60;;;20.60;56.50;;;;;;6186045;23;20438;-89
2021/08/24 04:44:15;;;;;;;7.30;4.60;;;20.80;56.10;;;;;;6187277;23;20414;-89
2021/08/24 04:46:42;;;;;;;5.60;3.80;;;20.90;55.60;;;;;;6186373;23;20405;-89
2021/08/24 04:49:09;;;;;;;5.57;4.47;;;21.20;55.30;;;;;;6188740;23;20488;-89
2021/08/24 04:51:37;;;;;;;6.10;4.40;;;21.10;55.00;;;;;;6187157;23;20441;-89
2021/08/24 04:54:04;;;;;;;4.50;3.60;;;21.20;55.30;;;;;;6186571;23;20445;-89
2021/08/24 04:56:31;;;;;;;4.40;3.80;;;21.50;55.40;;;;;;6188495;23;20746;-88
2021/08/24 04:58:58;;;;;;;5.97;4.77;;;21.60;55.00;;;;;;6186587;23;20492;-88
2021/08/24 05:01:24;;;;;;;6.03;4.13;;;21.40;51.20;;;;;;6185900;23;20429;-88
2021/08/24 05:03:51;;;;;;;5.50;4.10;;;21.10;54.80;;;;;;6185979;23;20437;-89
2021/08/24 05:06:18;;;;;;;4.43;3.87;;;21.10;54.50;;;;;;6185728;23;20489;-88
2021/08/24 05:08:46;;;;;;;7.10;5.53;;;21.10;54.90;;;;;;6185787;23;20421;-88
2021/08/24 05:11:13;;;;;;;12.53;5.60;;;20.60;52.20;;;;;;6187665;23;20604;-88
2021/08/24 05:13:40;;;;;;;7.47;4.83;;;20.00;52.20;;;;;;6187800;23;20453;-89
2021/08/24 05:16:08;;;;;;;5.57;4.43;;;19.90;55.30;;;;;;6188099;23;20493;-88
2021/08/24 05:18:36;;;;;;;7.57;4.50;;;19.80;54.20;;;;;;6185797;23;20444;-88
2021/08/24 05:21:04;;;;;;;10.10;3.60;;;20.30;56.90;;;;;;6185556;23;20453;-88
2021/08/24 05:23:32;;;;;;;11.50;5.60;;;20.50;56.90;;;;;;6185989;23;20438;-88
2021/08/24 05:26:01;;;;;;;8.13;5.33;;;20.60;53.10;;;;;;6185927;23;20406;-88
2021/08/24 05:28:28;;;;;;;12.20;4.77;;;20.70;52.40;;;;;;6185705;23;20808;-88
2021/08/24 05:30:55;;;;;;;8.90;5.57;;;20.50;52.10;;;;;;6185764;23;20473;-88
2021/08/24 05:33:22;;;;;;;12.20;5.50;;;20.50;55.80;;;;;;6185837;23;20433;-88
2021/08/24 05:35:49;;;;;;;7.20;4.93;;;20.80;53.10;;;;;;6184933;23;20417;-89
2021/08/24 05:38:16;;;;;;;10.93;4.90;;;21.40;51.80;;;;;;6186028;23;20916;-88
2021/08/24 05:40:43;;;;;;;7.90;5.17;;;21.80;48.30;;;;;;6186089;23;20422;-88
2021/08/24 05:43:11;;;;;;;5.83;4.70;;;22.10;51.00;;;;;;6187724;23;20413;-87
2021/08/24 05:45:38;;;;;;;6.60;5.00;;;22.80;48.90;;;;;;6187984;23;20738;-88
2021/08/24 05:48:05;;;;;;;6.60;4.93;;;23.00;46.40;;;;;;6188016;23;20897;-88
2021/08/24 05:50:32;;;;;;;20.80;5.63;;;23.30;46.60;;;;;;6188028;23;20476;-88
2021/08/24 05:52:59;;;;;;;10.33;5.10;;;23.80;44.90;;;;;;6188156;23;20410;-87
2021/08/24 05:55:26;;;;;;;7.60;5.43;;;24.20;41.80;;;;;;6187575;23;20437;-87
2021/08/24 05:57:53;;;;;;;6.37;4.63;;;23.90;43.60;;;;;;6187426;23;20437;-87
2021/08/24 06:00:22;;;;;;;6.87;5.07;;;24.30;43.60;;;;;;6187542;23;20778;-88
2021/08/24 06:02:49;;;;;;;6.47;4.67;;;24.30;43.50;;;;;;6187531;23;20405;-87
2021/08/24 06:05:16;;;;;;;7.30;4.37;;;24.70;42.30;;;;;;6186791;23;20437;-87
2021/08/24 06:07:43;;;;;;;6.30;4.33;;;24.30;41.10;;;;;;6187352;23;20468;-87
2021/08/24 06:10:10;;;;;;;8.73;4.47;;;24.20;41.70;;;;;;6186917;23;20469;-88
2021/08/24 06:12:37;;;;;;;9.03;4.80;;;24.60;41.40;;;;;;6187310;23;20472;-88
2021/08/24 06:15:05;;;;;;;11.97;4.70;;;24.90;41.40;;;;;;6186980;23;21001;-88
2021/08/24 06:17:33;;;;;;;7.50;4.17;;;25.40;39.90;;;;;;6187335;23;20394;-88
2021/08/24 06:20:00;;;;;;;11.93;4.80;;;25.60;38.90;;;;;;6187093;23;20430;-89
2021/08/24 06:22:27;;;;;;;7.77;5.00;;;25.80;38.00;;;;;;6187506;23;20406;-88
2021/08/24 06:24:54;;;;;;;8.80;4.70;;;26.30;37.60;;;;;;6187433;23;20452;-88
2021/08/24 06:27:21;;;;;;;6.97;4.63;;;25.90;37.50;;;;;;6187522;23;20394;-88
2021/08/24 06:29:48;;;;;;;5.83;4.13;;;25.50;36.90;;;;;;6187569;23;20454;-88
2021/08/24 06:32:37;;;;;;;11.10;4.80;;;24.60;38.60;;;;;;6188372;23;20484;-87
2021/08/24 06:35:07;;;;;;;8.63;4.97;;;23.80;39.30;;;;;;6189757;23;20420;-86
2021/08/24 06:37:34;;;;;;;8.80;5.10;;;23.00;40.70;;;;;;6187146;23;20429;-87
2021/08/24 06:40:01;;;;;;;5.77;4.37;;;21.40;43.60;;;;;;6186803;23;20465;-87
2021/08/24 06:42:28;;;;;;;8.73;4.50;;;20.60;45.10;;;;;;6187538;23;20452;-87
2021/08/24 06:44:55;;;;;;;9.13;4.57;;;19.80;47.20;;;;;;6187017;23;20477;-86
2021/08/24 06:47:22;;;;;;;9.63;5.10;;;19.20;48.80;;;;;;6187751;23;20437;-86
2021/08/24 06:49:49;;;;;;;14.83;5.37;;;19.30;48.00;;;;;;6187916;23;20425;-87
2021/08/24 06:52:17;;;;;;;7.20;4.60;;;18.50;50.40;;;;;;6188032;23;20434;-87
2021/08/24 06:54:44;;;;;;;7.07;5.10;;;18.50;50.90;;;;;;6188898;23;20487;-86
2021/08/24 06:57:12;;;;;;;9.40;5.20;;;18.90;50.70;;;;;;6188542;23;20405;-86
2021/08/24 06:59:39;;;;;;;5.67;4.37;;;19.20;50.50;;;;;;6187467;23;20438;-86
2021/08/24 07:02:07;;;;;;;6.73;5.00;;;18.80;51.50;;;;;;6188108;23;20949;-86
2021/08/24 07:04:36;;;;;;;14.43;5.10;;;18.70;51.90;;;;;;6188024;23;20425;-87
2021/08/24 07:07:03;;;;;;;5.60;4.40;;;18.80;53.50;;;;;;6188296;23;20413;-87
2021/08/24 07:09:31;;;;;;;9.53;4.83;;;19.60;52.40;;;;;;6188746;23;20741;-87
2021/08/24 07:11:58;;;;;;;15.07;4.70;;;20.10;51.70;;;;;;6187389;23;20469;-86
2021/08/24 07:14:25;;;;;;;7.30;5.27;;;20.20;50.10;;;;;;6188644;23;20798;-87
2021/08/24 07:16:52;;;;;;;5.73;4.17;;;20.40;49.20;;;;;;6187861;23;20464;-87
2021/08/24 07:19:19;;;;;;;9.33;4.87;;;20.20;49.10;;;;;;6188699;23;20779;-88
2021/08/24 07:21:46;;;;;;;7.40;5.03;;;20.00;49.70;;;;;;6188033;23;20480;-87
2021/08/24 07:24:13;;;;;;;11.10;5.70;;;20.10;49.40;;;;;;6186660;23;20868;-87
2021/08/24 07:26:41;;;;;;;9.77;5.80;;;20.10;49.50;;;;;;6187102;23;20456;-87
2021/08/24 07:29:08;;;;;;;10.77;5.43;;;19.90;48.70;;;;;;6188435;23;20472;-88
2021/08/24 07:31:37;;;;;;;7.63;5.03;;;19.90;49.50;;;;;;6187548;23;20496;-87
2021/08/24 07:34:05;;;;;;;7.77;4.60;;;19.80;51.10;;;;;;6187907;23;20418;-88
2021/08/24 07:36:31;;;;;;;17.90;5.57;;;19.90;49.50;;;;;;6187245;23;20493;-88
2021/08/24 07:38:59;;;;;;;7.13;4.83;;;20.30;49.00;;;;;;6186879;23;20902;-88
2021/08/24 07:41:25;;;;;;;9.83;5.13;;;20.40;48.30;;;;;;6185963;23;20450;-87
2021/08/24 07:43:54;;;;;;;8.30;5.23;;;19.90;48.60;;;;;;6188973;23;20405;-88
2021/08/24 07:46:21;;;;;;;8.00;5.33;;;19.20;53.20;;;;;;6188550;23;20813;-87
2021/08/24 07:48:48;;;;;;;10.63;5.87;;;19.30;50.90;;;;;;6188562;23;20898;-87
2021/08/24 07:51:19;;;;;;;10.00;5.60;;;18.60;51.30;;;;;;6186276;23;20512;-87
2021/08/24 07:53:46;;;;;;;9.00;5.50;;;18.90;51.40;;;;;;6185498;23;20409;-87
2021/08/24 07:56:13;;;;;;;9.53;5.77;;;18.20;52.40;;;;;;6187207;23;20394;-87
2021/08/24 07:58:40;;;;;;;15.37;5.80;;;18.30;52.40;;;;;;6187977;23;20493;-86
2021/08/24 08:01:08;;;;;;;11.03;5.00;;;18.10;52.70;;;;;;6190602;23;20500;-86
2021/08/24 08:03:36;;;;;;;10.40;5.37;;;18.00;51.70;;;;;;6187852;23;20402;-86
2021/08/24 08:06:03;;;;;;;9.10;5.80;;;18.50;50.50;;;;;;6188382;23;20414;-86
2021/08/24 08:08:30;;;;;;;12.03;5.07;;;18.40;50.20;;;;;;6188444;23;20410;-87
2021/08/24 08:10:57;;;;;;;9.83;4.87;;;19.20;50.00;;;;;;6189374;23;20441;-86
2021/08/24 08:13:24;;;;;;;16.50;4.83;;;19.10;49.00;;;;;;6189284;23;20394;-86
2021/08/24 08:15:52;;;;;;;8.13;5.77;;;19.60;49.50;;;;;;6187655;23;20440;-86
2021/08/24 08:18:20;;;;;;;8.23;5.50;;;20.00;46.50;;;;;;6192148;23;20402;-86
2021/08/24 08:20:47;;;;;;;20.13;4.90;;;19.40;48.30;;;;;;6196640;23;20417;-87
2021/08/24 08:23:17;;;;;;;5.20;4.23;;;19.30;48.80;;;;;;6198347;23;20391;-86
2021/08/24 08:25:44;;;;;;;7.33;4.30;;;19.00;48.90;;;;;;6195941;23;20445;-86
2021/08/24 08:28:12;;;;;;;10.23;5.00;;;18.60;49.30;;;;;;6196635;23;20409;-86
2021/08/24 08:30:41;;;;;;;12.50;5.33;;;18.10;49.90;;;;;;6189574;23;20432;-86
2021/08/24 08:33:08;;;;;;;9.07;5.00;;;18.20;50.10;;;;;;6188993;23;20940;-86
2021/08/24 08:35:36;;;;;;;9.50;5.00;;;18.10;50.80;;;;;;6195437;23;20418;-87
2021/08/24 08:38:04;;;;;;;12.23;4.70;;;17.80;50.90;;;;;;6197075;23;20469;-86
2021/08/24 08:40:40;;;;;;;11.57;5.87;;;18.10;50.30;;;;;;6195003;23;20406;-87
2021/08/24 08:43:14;;;;;;;8.30;5.30;;;18.50;49.40;;;;;;6190435;23;20398;-87
2021/08/24 08:45:44;;;;;;;7.03;4.70;;;18.70;50.50;;;;;;6188296;23;20413;-87
2021/08/24 08:48:34;;;;;;;11.27;5.70;;;18.70;50.00;;;;;;6187270;23;20444;-87
2021/08/24 08:51:12;;;;;;;6.67;4.77;;;19.20;49.10;;;;;;6187878;23;20442;-88
2021/08/24 08:53:45;;;;;;;8.17;6.00;;;19.50;47.80;;;;;;6186397;23;20444;-88
2021/08/24 08:56:18;;;;;;;6.33;4.73;;;19.20;48.40;;;;;;6186715;23;20394;-87
2021/08/24 08:58:54;;;;;;;6.67;4.47;;;18.60;48.50;;;;;;6188327;23;20390;-88
2021/08/24 09:01:26;;;;;;;8.50;4.93;;;18.50;50.30;;;;;;6188291;23;20437;-87
2021/08/24 09:04:13;;;;;;;17.03;5.57;;;19.00;48.40;;;;;;6188155;23;20385;-88
2021/08/24 09:06:44;;;;;;;15.27;5.83;;;18.70;48.30;;;;;;6189421;23;20394;-88
2021/08/24 09:09:11;;;;;;;9.70;5.60;;;18.50;52.20;;;;;;6196632;23;20398;-87
2021/08/24 09:11:42;;;;;;;15.00;4.97;;;18.60;48.80;;;;;;6188740;23;20441;-88
2021/08/24 09:14:16;;;;;;;14.67;5.23;;;19.20;49.10;;;;;;6187706;23;20386;-89
2021/08/24 09:16:49;;;;;;;9.80;5.67;;;19.30;47.80;;;;;;6188112;23;20432;-87
2021/08/24 09:19:21;;;;;;;8.70;5.20;;;18.50;49.00;;;;;;6188780;23;20386;-88
2021/08/24 09:21:50;;;;;;;12.00;5.60;;;18.60;49.40;;;;;;6188589;23;20421;-87
2021/08/24 09:24:19;;;;;;;15.43;4.90;;;18.30;49.80;;;;;;6188633;23;20401;-87
2021/08/24 09:26:58;;;;;;;12.87;5.50;;;18.10;51.40;;;;;;6188121;23;20436;-87
2021/08/24 09:29:29;;;;;;;15.63;5.70;;;18.30;50.60;;;;;;6189074;23;20425;-87
2021/08/24 09:31:56;;;;;;;7.10;4.80;;;18.50;50.70;;;;;;6188342;23;20450;-87
2021/08/24 09:34:28;;;;;;;16.40;5.37;;;18.90;50.60;;;;;;6189368;23;20758;-87
2021/08/24 09:36:57;;;;;;;8.07;4.97;;;18.80;50.10;;;;;;6188105;23;20437;-87
2021/08/24 09:39:52;;;;;;;7.63;5.23;;;19.30;51.10;;;;;;6188706;23;20429;-87
2021/08/24 09:42:29;;;;;;;8.23;5.27;;;19.70;48.30;;;;;;6188658;23;20406;-88
2021/08/24 09:44:59;;;;;;;11.20;6.07;;;19.70;48.30;;;;;;6188537;23;20473;-87
2021/08/24 09:47:26;;;;;;;12.33;5.30;;;19.60;49.60;;;;;;6188488;23;20390;-87
2021/08/24 09:50:00;;;;;;;11.13;5.13;;;20.10;48.40;;;;;;6188903;23;20449;-88
2021/08/24 09:52:31;;;;;;;10.37;6.37;;;20.30;47.80;;;;;;6187689;23;20476;-88
2021/08/24 09:55:01;;;;;;;9.63;5.80;;;20.10;47.80;;;;;;6188692;23;20507;-88
2021/08/24 09:57:30;;;;;;;9.40;5.17;;;20.20;47.90;;;;;;6189679;23;20429;-88
2021/08/24 10:00:01;;;;;;;9.53;5.37;;;19.90;47.90;;;;;;6188768;23;20520;-88
2021/08/24 10:02:38;;;;;;;7.17;5.33;;;20.20;48.60;;;;;;6190107;23;20405;-88
2021/08/24 10:05:06;;;;;;;9.20;5.50;;;20.50;46.50;;;;;;6192385;23;20394;-87
2021/08/24 10:07:37;;;;;;;13.70;5.63;;;20.60;46.70;;;;;;6190973;23;20445;-88
2021/08/24 10:10:08;;;;;;;9.10;4.70;;;20.50;47.80;;;;;;6187898;23;20461;-87
2021/08/24 10:12:35;;;;;;;9.10;4.90;;;20.90;47.10;;;;;;6187997;23;20449;-87
2021/08/24 10:15:22;;;;;;;9.00;4.57;;;21.10;45.50;;;;;;6187499;23;20390;-87
2021/08/24 10:17:58;;;;;;;7.63;5.00;;;21.50;45.90;;;;;;6188508;23;20375;-88
2021/08/24 10:20:30;;;;;;;8.50;4.73;;;21.70;46.10;;;;;;6188421;23;20441;-88
2021/08/24 10:23:00;;;;;;;6.67;4.70;;;22.00;45.10;;;;;;6188202;23;20409;-89
2021/08/24 10:25:29;;;;;;;6.20;4.93;;;22.00;44.70;;;;;;6188128;23;20409;-88
2021/08/24 10:28:06;;;;;;;15.20;5.40;;;21.80;45.50;;;;;;6187870;23;20429;-87
2021/08/24 10:30:43;;;;;;;5.90;4.60;;;21.80;46.10;;;;;;6187813;23;20426;-87
2021/08/24 10:33:31;;;;;;;6.37;4.50;;;21.80;46.20;;;;;;6186356;23;20432;-87
2021/08/24 10:36:03;;;;;;;9.87;5.37;;;22.20;45.90;;;;;;6189987;23;20420;-87
2021/08/24 10:38:54;;;;;;;8.57;4.43;;;21.60;45.90;;;;;;6186443;23;20390;-88
2021/08/24 10:41:25;;;;;;;8.80;4.80;;;21.60;46.00;;;;;;6188056;23;20485;-88
2021/08/24 10:43:56;;;;;;;6.90;5.20;;;21.70;46.10;;;;;;6187251;23;20466;-87
2021/08/24 10:46:23;;;;;;;6.90;5.17;;;22.10;44.70;;;;;;6187782;23;20691;-87
2021/08/24 10:48:52;;;;;;;12.20;4.70;;;21.40;45.80;;;;;;6161656;23;20907;-87
2021/08/24 10:51:34;;;;;;;5.10;4.43;;;21.40;47.10;;;;;;6187631;23;20457;-87
2021/08/24 10:54:26;;;;;;;6.23;4.70;;;21.80;45.80;;;;;;6188148;23;20449;-87
2021/08/24 10:57:01;;;;;;;7.10;4.77;;;21.00;47.90;;;;;;6182383;23;20449;-87
2021/08/24 10:59:39;;;;;;;8.70;5.20;;;20.80;48.50;;;;;;6187839;23;20888;-87
2021/08/24 11:02:17;;;;;;;7.83;4.97;;;19.80;49.80;;;;;;6187197;23;20386;-87
2021/08/24 11:04:57;;;;;;;8.33;4.90;;;19.30;51.10;;;;;;6186745;23;20706;-87
2021/08/24 11:07:37;;;;;;;6.17;4.50;;;19.70;51.30;;;;;;6186815;23;20378;-87
2021/08/24 11:10:16;;;;;;;8.83;5.37;;;20.30;50.10;;;;;;6190053;23;20921;-86
2021/08/24 11:12:54;;;;;;;5.00;4.40;;;20.10;49.60;;;;;;6193525;23;20453;-86
2021/08/24 11:15:39;;;;;;;12.10;5.20;;;19.50;50.90;;;;;;6187876;23;20422;-86
2021/08/24 11:18:15;;;;;;;8.37;5.17;;;19.80;51.70;;;;;;6186939;23;20437;-86
2021/08/24 11:20:48;;;;;;;7.70;4.70;;;19.50;50.30;;;;;;6186854;23;20437;-86
2021/08/24 11:23:25;;;;;;;6.03;5.27;;;19.50;51.90;;;;;;6187147;23;20573;-87
2021/08/24 11:26:00;;;;;;;13.83;6.00;;;19.50;50.80;;;;;;6187115;23;20452;-86
2021/08/24 11:28:38;;;;;;;7.07;4.70;;;20.00;50.70;;;;;;6186880;23;20739;-87
2021/08/24 11:31:10;;;;;;;7.30;5.33;;;21.00;48.40;;;;;;6190653;23;20417;-87
2021/08/24 11:33:42;;;;;;;6.23;4.73;;;20.70;49.20;;;;;;6192026;23;20422;-87
2021/08/24 11:36:15;;;;;;;6.80;4.83;;;21.00;47.40;;;;;;6188249;23;20398;-87
2021/08/24 11:38:44;;;;;;;6.53;4.57;;;20.80;48.00;;;;;;6187295;23;20497;-87
2021/08/24 11:41:15;;;;;;;6.00;4.93;;;20.90;48.50;;;;;;6186739;23;20727;-86
2021/08/24 11:43:49;;;;;;;5.97;4.73;;;21.00;48.00;;;;;;6186410;23;20421;-87
2021/08/24 11:46:25;;;;;;;9.13;5.33;;;21.10;48.00;;;;;;6187132;23;20438;-88
2021/08/24 11:49:00;;;;;;;7.70;4.90;;;21.30;48.20;;;;;;6187554;23;20444;-87
2021/08/24 11:51:32;;;;;;;6.00;4.83;;;21.20;47.50;;;;;;6187020;23;20429;-86
2021/08/24 11:54:10;;;;;;;5.43;4.47;;;20.40;48.30;;;;;;6187293;23;20378;-87
2021/08/24 11:56:47;;;;;;;8.10;5.10;;;20.50;49.30;;;;;;6186719;23;20425;-87
2021/08/24 11:59:21;;;;;;;6.40;4.60;;;20.80;49.70;;;;;;6187074;23;20382;-87
2021/08/24 12:01:48;;;;;;;9.00;6.47;;;21.40;47.50;;;;;;6186583;23;20628;-88
2021/08/24 12:04:21;;;;;;;11.27;5.30;;;21.00;47.10;;;;;;6187677;23;20500;-87
2021/08/24 12:06:53;;;;;;;6.30;4.87;;;21.40;45.80;;;;;;6188192;23;20413;-87
2021/08/24 12:09:38;;;;;;;10.63;5.10;;;20.90;46.50;;;;;;6190698;23;20394;-87
2021/08/24 12:12:09;;;;;;;7.80;5.33;;;20.40;47.50;;;;;;6187179;23;20503;-87
2021/08/24 12:14:42;;;;;;;10.43;4.63;;;20.20;48.50;;;;;;6187390;23;20461;-88
2021/08/24 12:17:24;;;;;;;9.00;5.23;;;20.70;47.90;;;;;;6186368;23;20878;-87
2021/08/24 12:19:57;;;;;;;5.43;4.27;;;21.00;46.90;;;;;;6186320;23;20406;-87
2021/08/24 12:22:31;;;;;;;7.37;4.63;;;20.80;48.20;;;;;;6186966;23;20876;-87
2021/08/24 12:25:06;;;;;;;10.83;5.30;;;20.70;47.50;;;;;;6186010;23;20478;-87
2021/08/24 12:28:03;;;;;;;8.47;5.27;;;20.60;48.00;;;;;;6186415;23;20398;-87
2021/08/24 12:30:36;;;;;;;4.97;4.40;;;20.80;47.40;;;;;;6186268;23;20558;-87
2021/08/24 12:33:28;;;;;;;8.20;4.87;;;20.70;48.20;;;;;;6185799;23;20481;-88
2021/08/24 12:35:55;;;;;;;5.93;4.53;;;21.20;47.00;;;;;;6185352;23;20710;-88
2021/08/24 12:38:45;;;;;;;6.30;4.70;;;21.40;47.00;;;;;;6185461;23;20402;-88
2021/08/24 12:41:27;;;;;;;9.33;5.03;;;21.20;47.30;;;;;;6186748;23;20485;-87
2021/08/24 12:44:17;;;;;;;6.07;5.00;;;21.50;46.60;;;;;;6185239;23;20441;-86
2021/08/24 12:46:45;;;;;;;7.03;4.50;;;20.90;47.50;;;;;;6186429;23;20409;-86
2021/08/24 12:49:39;;;;;;;5.73;4.40;;;20.60;48.60;;;;;;6185937;23;20405;-86
2021/08/24 12:52:30;;;;;;;5.03;4.13;;;21.00;47.80;;;;;;6185771;23;20441;-87
2021/08/24 12:55:06;;;;;;;9.00;4.53;;;21.00;48.00;;;;;;6186310;23;20388;-86
2021/08/24 12:57:36;;;;;;;8.40;4.53;;;20.90;47.80;;;;;;6186615;23;20812;-86
2021/08/24 13:00:24;;;;;;;6.10;4.27;;;21.00;48.10;;;;;;6186517;23;20422;-86
2021/08/24 13:02:57;;;;;;;6.53;4.50;;;21.00;47.80;;;;;;6185953;23;20420;-86
2021/08/24 13:05:28;;;;;;;8.60;4.57;;;21.30;47.20;;;;;;6186225;23;20876;-86